LiveATC.Net - Listen to live air traffic control over the Internet!


ICAO: SBEG  IATA: MAO   Airport: Brigadeiro Eduardo Gomes-Manaus International Airport
City: Manaus
Country: Brazil   Continent: South America
SBEG METAR Weather: SBEG 060700Z 02001KT CAVOK 24/23 Q1012
SBEG Flight Activity (FlightAware)

SBEG Tower/App
Feed Status: UP   Listeners: 1
Listen in your browser - HTML5 player (in browser, HTML5)
Click here to listen with your own player (launches your MP3 player)
Archive Access: SBEG Tower/App
FacilityFrequency
Emergency/Guard121.500
Manaus Approach 119.250
Manaus Approach119.700
Manaus Approach120.400
Manaus Tower118.300

NOTICE

Unauthorized use prohibited. See LiveATC.net Terms of Service


Airport/ARTCC Code
Frequency Search
(e.g., 124.400, 128.75)
Site-wide search
 


Browse Feeds
Top 50 Feeds
HF Oceanic Feeds
Coverage Map
Bad Weather Areas

LiveATC FAQ
Offer LiveATC feed
Contact LiveATC.net
Press Inquiries

LiveATC on iPhone
LiveATC on Android

LiveATC Mobile
(Mobile browser)

ATC Audio Archives
Interesting Recordings

LiveATC Forums


Home Page
About LiveATC.net


Terms of Use
Privacy Policy

AIRMETs/SIGMETs

FAA Airport Status
NAS Status
Arrival Demand


Server Software By:
Icecast.org
Liquidsoap